Time,TemperatureF,DewpointF,PressureIn,WindDirection,WindDirectionDegrees,WindSpeedMPH,WindSpeedGustMPH,Humidity,HourlyPrecipIn,Conditions,Clouds,dailyrainin,SoftwareType,DateUTC
2013-09-30 00:12:00,61.0,38.0,29.88,WSW,245,1.0,-999.0,43,-99.99,,,-99.99,,2013-09-30 06:12:00,
2013-09-30 00:22:00,60.0,39.0,29.88,WSW,245,0.0,-999.0,45,-99.99,,,-99.99,,2013-09-30 06:22:00,
2013-09-30 00:42:00,60.0,39.0,29.87,WSW,245,1.0,-999.0,46,-99.99,,,-99.99,,2013-09-30 06:42:00,
2013-09-30 00:52:00,60.0,39.0,29.87,WSW,245,1.0,-999.0,46,-99.99,,,-99.99,,2013-09-30 06:52:00,
2013-09-30 01:12:00,61.0,38.0,29.88,WSW,245,1.0,-999.0,43,-99.99,,,-99.99,,2013-09-30 07:12:00,
2013-09-30 01:22:00,59.0,39.0,29.88,WSW,245,1.0,-999.0,47,-99.99,,,-99.99,,2013-09-30 07:22:00,
2013-09-30 01:42:00,60.0,38.0,29.88,WSW,245,1.0,-999.0,44,-99.99,,,-99.99,,2013-09-30 07:42:00,
2013-09-30 01:53:00,60.0,37.0,29.87,WSW,245,1.0,-999.0,43,-99.99,,,-99.99,,2013-09-30 07:53:00,
2013-09-30 02:12:00,60.0,39.0,29.87,WSW,245,2.0,-999.0,45,-99.99,,,-99.99,,2013-09-30 08:12:00,
2013-09-30 02:22:00,59.0,37.0,29.87,WSW,245,1.0,-999.0,44,-99.99,,,-99.99,,2013-09-30 08:22:00,
2013-09-30 02:42:00,58.0,39.0,29.87,WSW,245,0.0,-999.0,49,-99.99,,,-99.99,,2013-09-30 08:42:00,
2013-09-30 02:52:00,57.0,39.0,29.87,WSW,245,1.0,-999.0,50,-99.99,,,-99.99,,2013-09-30 08:52:00,
2013-09-30 03:11:00,57.0,39.0,29.86,WSW,245,2.0,-999.0,50,-99.99,,,-99.99,,2013-09-30 09:11:00,
2013-09-30 03:22:00,58.0,38.0,29.86,WSW,245,2.0,-999.0,47,-99.99,,,-99.99,,2013-09-30 09:22:00,
2013-09-30 03:54:00,60.0,36.0,29.85,WSW,245,2.0,-999.0,41,-99.99,,,-99.99,,2013-09-30 09:54:00,
2013-09-30 04:13:00,60.0,36.0,29.85,WSW,245,2.0,-999.0,41,-99.99,,,-99.99,,2013-09-30 10:13:00,
2013-09-30 04:23:00,60.0,36.0,29.85,WSW,245,2.0,-999.0,41,-99.99,,,-99.99,,2013-09-30 10:23:00,
2013-09-30 04:53:00,59.0,37.0,29.85,WSW,245,2.0,-999.0,44,-99.99,,,-99.99,,2013-09-30 10:53:00,
2013-09-30 05:12:00,55.0,38.0,29.85,WSW,245,2.0,-999.0,53,-99.99,,,-99.99,,2013-09-30 11:12:00,
2013-09-30 05:22:00,55.0,40.0,29.85,WSW,245,1.0,-999.0,56,-99.99,,,-99.99,,2013-09-30 11:22:00,
2013-09-30 05:52:00,54.0,38.0,29.85,WSW,245,2.0,-999.0,55,-99.99,,,-99.99,,2013-09-30 11:52:00,
2013-09-30 06:12:00,55.0,38.0,29.85,WSW,245,2.0,-999.0,53,-99.99,,,-99.99,,2013-09-30 12:12:00,
2013-09-30 06:22:00,54.0,39.0,29.85,WSW,245,0.0,-999.0,57,-99.99,,,-99.99,,2013-09-30 12:22:00,
2013-09-30 06:42:00,55.0,39.0,29.85,WSW,245,1.0,-999.0,54,-99.99,,,-99.99,,2013-09-30 12:42:00,
2013-09-30 06:52:00,55.0,39.0,29.85,WSW,245,2.0,-999.0,54,-99.99,,,-99.99,,2013-09-30 12:52:00,
2013-09-30 07:11:00,55.0,39.0,29.85,WSW,245,2.0,-999.0,54,-99.99,,,-99.99,,2013-09-30 13:11:00,
2013-09-30 07:22:00,54.0,39.0,29.85,WSW,245,1.0,-999.0,57,-99.99,,,-99.99,,2013-09-30 13:22:00,
2013-09-30 07:42:00,52.0,39.0,29.85,WSW,245,1.0,-999.0,60,-99.99,,,-99.99,,2013-09-30 13:42:00,
2013-09-30 07:52:00,53.0,40.0,29.86,WSW,245,0.0,-999.0,61,-99.99,,,-99.99,,2013-09-30 13:52:00,
2013-09-30 08:11:00,55.0,40.0,29.86,WSW,245,0.0,-999.0,57,-99.99,,,-99.99,,2013-09-30 14:11:00,
2013-09-30 08:22:00,56.0,39.0,29.86,WSW,245,0.0,-999.0,53,-99.99,,,-99.99,,2013-09-30 14:22:00,
2013-09-30 08:42:00,58.0,40.0,29.86,WSW,245,0.0,-999.0,51,-99.99,,,-99.99,,2013-09-30 14:42:00,
2013-09-30 08:53:00,58.0,38.0,29.86,WSW,245,1.0,-999.0,48,-99.99,,,-99.99,,2013-09-30 14:53:00,
2013-09-30 09:11:00,58.0,38.0,29.86,WSW,245,1.0,-999.0,48,-99.99,,,-99.99,,2013-09-30 15:11:00,
2013-09-30 09:23:00,59.0,38.0,29.87,WSW,245,1.0,-999.0,46,-99.99,,,-99.99,,2013-09-30 15:23:00,
2013-09-30 09:45:00,61.0,40.0,29.87,WSW,245,1.0,-999.0,46,-99.99,,,-99.99,,2013-09-30 15:45:00,
2013-09-30 09:54:00,62.0,40.0,29.87,WSW,245,2.0,-999.0,44,-99.99,,,-99.99,,2013-09-30 15:54:00,
2013-09-30 10:14:00,63.0,40.0,29.87,WSW,245,1.0,-999.0,43,-99.99,,,-99.99,,2013-09-30 16:14:00,
2013-09-30 10:24:00,65.0,41.0,29.87,WSW,245,1.0,-999.0,41,-99.99,,,-99.99,,2013-09-30 16:24:00,
2013-09-30 10:44:00,66.0,41.0,29.87,WSW,245,2.0,-999.0,40,-99.99,,,-99.99,,2013-09-30 16:44:00,
2013-09-30 10:53:00,68.0,41.0,29.86,WSW,245,2.0,-999.0,37,-99.99,,,-99.99,,2013-09-30 16:53:00,
2013-09-30 11:03:00,68.0,41.0,29.86,WSW,245,2.0,-999.0,37,-99.99,,,-99.99,,2013-09-30 17:03:00,
2013-09-30 11:13:00,68.0,41.0,29.86,WSW,245,2.0,-999.0,37,-99.99,,,-99.99,,2013-09-30 17:13:00,
2013-09-30 11:22:00,69.0,41.0,29.85,WSW,245,4.0,-999.0,36,-99.99,,,-99.99,,2013-09-30 17:22:00,
2013-09-30 11:43:00,70.0,40.0,29.85,WSW,245,3.0,-999.0,34,-99.99,,,-99.99,,2013-09-30 17:43:00,
2013-09-30 11:53:00,72.0,42.0,29.85,WSW,245,2.0,-999.0,34,-99.99,,,-99.99,,2013-09-30 17:53:00,
2013-09-30 12:12:00,73.0,41.0,29.85,WSW,245,4.0,-999.0,32,-99.99,,,-99.99,,2013-09-30 18:12:00,
2013-09-30 12:22:00,74.0,41.0,29.84,WSW,245,4.0,-999.0,30,-99.99,,,-99.99,,2013-09-30 18:22:00,
2013-09-30 12:53:00,76.0,42.0,29.83,WSW,243,3.0,-999.0,30,-99.99,,,-99.99,,2013-09-30 18:53:00,
2013-09-30 13:12:00,76.0,41.0,29.82,WSW,243,3.0,-999.0,29,-99.99,,,-99.99,,2013-09-30 19:12:00,
2013-09-30 13:22:00,78.0,42.0,29.81,WSW,243,1.0,-999.0,28,-99.99,,,-99.99,,2013-09-30 19:22:00,
2013-09-30 13:42:00,81.0,44.0,29.80,WSW,243,2.0,-999.0,27,-99.99,,,-99.99,,2013-09-30 19:42:00,
2013-09-30 13:53:00,82.0,42.0,29.78,WSW,243,2.0,-999.0,24,-99.99,,,-99.99,,2013-09-30 19:53:00,
2013-09-30 14:13:00,81.0,37.0,29.77,WSW,254,4.0,-999.0,21,-99.99,,,-99.99,,2013-09-30 20:13:00,
2013-09-30 14:23:00,83.0,36.0,29.76,West,263,5.0,-999.0,19,-99.99,,,-99.99,,2013-09-30 20:23:00,
2013-09-30 14:53:00,84.0,37.0,29.75,WSW,252,5.0,-999.0,19,-99.99,,,-99.99,,2013-09-30 20:53:00,
2013-09-30 15:11:00,84.0,31.0,29.74,West,261,8.0,-999.0,15,-99.99,,,-99.99,,2013-09-30 21:11:00,
2013-09-30 15:22:00,85.0,32.0,29.73,West,269,7.0,-999.0,15,-99.99,,,-99.99,,2013-09-30 21:22:00,
2013-09-30 15:44:00,85.0,34.0,29.73,WSW,237,8.0,-999.0,16,-99.99,,,-99.99,,2013-09-30 21:44:00,
2013-09-30 15:54:00,86.0,31.0,29.72,SW,236,7.0,-999.0,14,-99.99,,,-99.99,,2013-09-30 21:54:00,
2013-09-30 16:13:00,86.0,31.0,29.71,WSW,241,7.0,-999.0,14,-99.99,,,-99.99,,2013-09-30 22:13:00,
2013-09-30 16:23:00,86.0,31.0,29.71,SW,234,9.0,-999.0,14,-99.99,,,-99.99,,2013-09-30 22:23:00,
2013-09-30 16:44:00,87.0,30.0,29.70,WSW,244,8.0,-999.0,13,-99.99,,,-99.99,,2013-09-30 22:44:00,
2013-09-30 16:54:00,86.0,31.0,29.70,West,267,7.0,-999.0,14,-99.99,,,-99.99,,2013-09-30 22:54:00,
2013-09-30 17:12:00,86.0,31.0,29.70,WSW,252,6.0,-999.0,14,-99.99,,,-99.99,,2013-09-30 23:12:00,
2013-09-30 17:23:00,87.0,34.0,29.70,WSW,249,6.0,-999.0,15,-99.99,,,-99.99,,2013-09-30 23:23:00,
2013-09-30 17:43:00,87.0,34.0,29.70,WSW,257,6.0,-999.0,15,-99.99,,,-99.99,,2013-09-30 23:43:00,
2013-09-30 17:53:00,86.0,33.0,29.69,WSW,245,7.0,-999.0,15,-99.99,,,-99.99,,2013-09-30 23:53:00,
2013-09-30 18:12:00,86.0,35.0,29.69,SW,234,7.0,-999.0,16,-99.99,,,-99.99,,2013-10-01 00:12:00,
2013-09-30 18:22:00,86.0,33.0,29.69,WSW,238,6.0,-999.0,15,-99.99,,,-99.99,,2013-10-01 00:22:00,
2013-09-30 18:43:00,85.0,34.0,29.69,SW,232,6.0,-999.0,16,-99.99,,,-99.99,,2013-10-01 00:43:00,
2013-09-30 18:52:00,84.0,33.0,29.70,SW,235,4.0,-999.0,16,-99.99,,,-99.99,,2013-10-01 00:52:00,
2013-09-30 19:12:00,83.0,32.0,29.70,SW,236,4.0,-999.0,16,-99.99,,,-99.99,,2013-10-01 01:12:00,
2013-09-30 19:21:00,81.0,32.0,29.70,SW,236,3.0,-999.0,17,-99.99,,,-99.99,,2013-10-01 01:21:00,
2013-09-30 19:42:00,78.0,36.0,29.70,SW,236,0.0,-999.0,22,-99.99,,,-99.99,,2013-10-01 01:42:00,
2013-09-30 19:52:00,76.0,36.0,29.70,SW,236,0.0,-999.0,23,-99.99,,,-99.99,,2013-10-01 01:52:00,
2013-09-30 20:22:00,73.0,36.0,29.70,SW,236,1.0,-999.0,26,-99.99,,,-99.99,,2013-10-01 02:22:00,
2013-09-30 20:43:00,73.0,33.0,29.71,SW,236,1.0,-999.0,23,-99.99,,,-99.99,,2013-10-01 02:43:00,
2013-09-30 20:52:00,72.0,33.0,29.72,SW,236,0.0,-999.0,24,-99.99,,,-99.99,,2013-10-01 02:52:00,
2013-09-30 21:12:00,72.0,33.0,29.72,SW,236,0.0,-999.0,24,-99.99,,,-99.99,,2013-10-01 03:12:00,
2013-09-30 21:22:00,72.0,32.0,29.73,SW,236,1.0,-999.0,23,-99.99,,,-99.99,,2013-10-01 03:22:00,
2013-09-30 21:44:00,71.0,32.0,29.73,SW,236,1.0,-999.0,24,-99.99,,,-99.99,,2013-10-01 03:44:00,
2013-09-30 21:55:00,70.0,33.0,29.74,SW,236,1.0,-999.0,25,-99.99,,,-99.99,,2013-10-01 03:55:00,
2013-09-30 22:14:00,70.0,33.0,29.74,SW,236,1.0,-999.0,25,-99.99,,,-99.99,,2013-10-01 04:14:00,
2013-09-30 22:24:00,71.0,31.0,29.74,SW,236,1.0,-999.0,23,-99.99,,,-99.99,,2013-10-01 04:24:00,